Sealand Washington — 9HA3421 — position and weather

sailwx.info

Track history (hours):
 
Tides and Currents Weather Stations Pressure Air Temp Water Temp Dewpoint Dewpoint Depression Visibility Wind Speed Wind Dir Waves Ship Positions

Sealand Washington

Last reported at 2018-May-19 02:32 UTC. Time now 2018-May-22 21:22 UTC.
Position N 48°24' W 010°09'.

Length 304 m; draft 13.7 m.

Type: Ship. MMSI: 229577000.

Date/timePositionNaut miles runAvg speedWind from/ knotsBaromVisibWave heightAir tempDewpointWater temp
2018-May-19 02:32N 48°24' W 010°09'117.5
2018-May-19 02:29N 48°24' W 010°08'917.7
2018-May-19 02:01N 48°26' W 009°55'918.1
2018-May-19 01:31N 48°29' W 009°42'918.3
2018-May-19 01:00N 48°31' W 009°29'918.5
2018-May-19 00:30N 48°34' W 009°15'918.4
2018-May-19 00:00N 48°39' W 009°04'917.7
2018-May-18 23:30N 48°44' W 008°53'1018.3
2018-May-18 22:59N 48°47' W 008°39'1018.2
2018-May-18 22:24N 48°49' W 008°23'718.2
2018-May-18 22:00N 48°51' W 008°13'918.1
2018-May-18 21:30N 48°54' W 007°60'3517.4
2018-May-18 19:29N 49°07' W 007°10'1116.7
2018-May-18 18:49N 49°10' W 006°54'516.5
2018-May-18 18:31N 49°12' W 006°46'1016.5
2018-May-18 17:55N 49°15' W 006°32'916.5
2018-May-18 17:21N 49°18' W 006°19'616.5
2018-May-18 17:00N 49°20' W 006°10'816.8
2018-May-18 16:31N 49°22' W 005°58'917.0
2018-May-18 16:01N 49°25' W 005°46'917.4
2018-May-18 15:31N 49°28' W 005°33'917.8
2018-May-18 15:01N 49°31' W 005°20'4918.8
2018-May-18 12:26N 49°45' W 004°09'919.8
2018-May-18 11:58N 49°48' W 003°55'1119.4
2018-May-18 11:25N 49°51' W 003°39'818.6
2018-May-18 11:00N 49°53' W 003°28'918.0
2018-May-18 10:30N 49°56' W 003°14'917.9
2018-May-18 10:00N 49°59' W 003°01'916.9
2018-May-18 09:30N 50°01' W 002°48'816.8
2018-May-18 09:00N 50°03' W 002°36'1416.2
2018-May-18 08:07N 50°06' W 002°14'215.6
2018-May-18 07:58N 50°07' W 002°10'715.9
2018-May-18 07:30N 50°08' W 001°59'816.4
2018-May-18 07:00N 50°05' W 001°47'816.9
2018-May-18 06:30N 50°00' W 001°36'917.5
2018-May-18 06:00N 49°56' W 001°24'918.3
2018-May-18 05:30N 49°52' W 001°12'918.9
2018-May-18 05:00N 49°47' W 000°59'918.9
2018-May-18 04:30N 49°43' W 000°46'918.5
2018-May-18 04:01N 49°39' W 000°33'918.3
2018-May-18 03:30N 49°35' W 000°20'815.9
2018-May-18 03:00N 49°32' W 000°09'612.3
2018-May-18 02:31N 49°30' E 000°00'611.3
2018-May-18 02:00N 49°28' E 000°08'1 1.6
2018-May-18 01:30N 49°28' E 000°09'0 0.0
2018-May-18 01:00N 49°28' E 000°09'0 0.0
2018-May-18 00:30N 49°28' E 000°09'0 0.0
2018-May-18 00:00N 49°28' E 000°09'0 0.0
2018-May-17 23:30N 49°28' E 000°09'0 0.0
2018-May-17 23:00N 49°28' E 000°09'0 0.0
2018-May-17 22:30N 49°28' E 000°09'0 0.0
2018-May-17 22:00N 49°28' E 000°09'0 0.0
2018-May-17 21:30N 49°28' E 000°09'0 0.0
2018-May-17 21:00N 49°28' E 000°09'0 0.0
2018-May-17 20:30N 49°28' E 000°09'0 0.0
2018-May-17 20:00N 49°28' E 000°09'0 0.0
2018-May-17 19:30N 49°28' E 000°09'0 0.0
2018-May-17 19:00N 49°28' E 000°09'0 0.0
2018-May-17 18:30N 49°28' E 000°09'0 0.0
2018-May-17 18:00N 49°28' E 000°09'0 0.0
2018-May-17 17:30N 49°28' E 000°09'0 0.0
2018-May-17 17:00N 49°28' E 000°09'0 0.0
2018-May-17 16:30N 49°28' E 000°09'0 0.0
2018-May-17 16:00N 49°28' E 000°09'0 0.0
2018-May-17 15:30N 49°28' E 000°09'0 0.0
2018-May-17 15:00N 49°28' E 000°09'0 0.0
2018-May-17 14:30N 49°28' E 000°09'0 0.0
2018-May-17 14:00N 49°28' E 000°09'0 0.0
2018-May-17 13:30N 49°28' E 000°09'0 0.0
2018-May-17 13:00N 49°28' E 000°09'0 0.0
2018-May-17 12:30N 49°28' E 000°09'0 0.0
2018-May-17 12:00N 49°28' E 000°09'0 0.0
2018-May-17 11:30N 49°28' E 000°09'0 0.0
2018-May-17 11:00N 49°28' E 000°09'0 0.0
2018-May-17 10:30N 49°28' E 000°09'0 0.0
2018-May-17 10:00N 49°28' E 000°09'0 0.0
2018-May-17 09:30N 49°28' E 000°09'0 0.0
2018-May-17 09:00N 49°28' E 000°09'0 0.0
2018-May-17 08:30N 49°28' E 000°09'0 0.0
2018-May-17 08:00N 49°28' E 000°09'0 0.0
2018-May-17 07:30N 49°28' E 000°09'0 0.0
2018-May-17 07:00N 49°28' E 000°09'0 0.0
2018-May-17 06:30N 49°28' E 000°09'0 0.0
2018-May-17 06:00N 49°28' E 000°09'0 0.0
2018-May-17 05:30N 49°28' E 000°09'0 0.0
2018-May-17 05:00N 49°28' E 000°09'0 0.0
2018-May-17 04:30N 49°28' E 000°09'0 0.0
2018-May-17 04:00N 49°28' E 000°09'0 0.0
2018-May-17 03:30N 49°28' E 000°09'0 0.0
2018-May-17 03:00N 49°28' E 000°09'0 0.0
2018-May-17 02:30N 49°28' E 000°09'0 0.0
2018-May-17 02:00N 49°28' E 000°09'0 0.0
2018-May-17 01:30N 49°28' E 000°09'0 0.0
2018-May-17 01:00N 49°28' E 000°09'0 0.0
2018-May-17 00:30N 49°28' E 000°09'0 0.0
2018-May-17 00:00N 49°28' E 000°09'0 0.0
2018-May-16 23:30N 49°28' E 000°09'0 0.0
2018-May-16 23:00N 49°28' E 000°09'0 0.0
2018-May-16 22:30N 49°28' E 000°09'0 0.0
2018-May-16 22:00N 49°28' E 000°09'0 0.0
2018-May-16 21:30N 49°28' E 000°09'0 0.0
2018-May-16 21:00N 49°28' E 000°09'0 0.0
2018-May-16 20:30N 49°28' E 000°09'0 0.0
2018-May-16 20:00N 49°28' E 000°09'0 0.0
2018-May-16 19:30N 49°28' E 000°09'0 0.0
2018-May-16 19:00N 49°28' E 000°09'0 0.0
2018-May-16 18:30N 49°28' E 000°09'0 0.0
2018-May-16 18:00N 49°28' E 000°09'0 0.0
2018-May-16 17:30N 49°28' E 000°09'0 0.0
2018-May-16 17:00N 49°28' E 000°09'0 0.0
2018-May-16 16:30N 49°28' E 000°09'0 0.0
2018-May-16 16:00N 49°28' E 000°09'0 0.0
2018-May-16 15:30N 49°28' E 000°09'0 0.0
2018-May-16 15:00N 49°28' E 000°09'0 0.0
2018-May-16 14:30N 49°28' E 000°09'0 0.0
2018-May-16 14:00N 49°28' E 000°09'0 0.0
2018-May-16 13:30N 49°28' E 000°09'0 0.0
2018-May-16 13:00N 49°28' E 000°09'0 0.0
2018-May-16 12:30N 49°28' E 000°09'0 0.0
2018-May-16 12:00N 49°28' E 000°09'0 0.0
2018-May-16 11:30N 49°28' E 000°09'0 0.0
2018-May-16 11:00N 49°28' E 000°09'0 0.0
2018-May-16 10:30N 49°28' E 000°09'0 0.0
2018-May-16 10:00N 49°28' E 000°09'0 0.0
2018-May-16 09:30N 49°28' E 000°09'0 0.0
2018-May-16 09:00N 49°28' E 000°09'0 0.0
2018-May-16 08:30N 49°28' E 000°09'0 0.0
2018-May-16 08:00N 49°28' E 000°09'0 0.0
2018-May-16 07:30N 49°28' E 000°09'0 0.0
2018-May-16 07:00N 49°28' E 000°09'0 0.0
2018-May-16 06:30N 49°28' E 000°09'0 0.0
2018-May-16 06:00N 49°28' E 000°09'0 0.0
2018-May-16 05:30N 49°28' E 000°09'0 0.0
2018-May-16 05:00N 49°28' E 000°09'0 0.0
2018-May-16 04:30N 49°28' E 000°09'0 0.0
2018-May-16 04:00N 49°28' E 000°09'0 0.0
2018-May-16 03:30N 49°28' E 000°09'0 0.0
2018-May-16 03:00N 49°28' E 000°09'0 0.0
2018-May-16 02:30N 49°28' E 000°09'0 0.0
2018-May-16 02:00N 49°28' E 000°09'0 0.0
2018-May-16 01:30N 49°28' E 000°09'0 0.0
2018-May-16 01:00N 49°28' E 000°09'0 0.0
2018-May-16 00:30N 49°28' E 000°09'0 0.0
2018-May-16 00:00N 49°28' E 000°09'0 0.0
2018-May-15 23:30N 49°28' E 000°09'0 0.0
2018-May-15 23:00N 49°28' E 000°09'0 0.0
2018-May-15 22:30N 49°28' E 000°09'0 0.0
2018-May-15 22:00N 49°28' E 000°09'0 0.0
2018-May-15 21:30N 49°28' E 000°09'0 0.0
2018-May-15 21:00N 49°28' E 000°09'0 0.0
2018-May-15 20:30N 49°28' E 000°09'0 0.0
2018-May-15 20:00N 49°28' E 000°09'0 0.0
2018-May-15 19:30N 49°28' E 000°09'0 0.0
2018-May-15 19:00N 49°28' E 000°09'0 0.1
2018-May-15 18:30N 49°28' E 000°09'0 0.0
2018-May-15 18:00N 49°28' E 000°09'0 0.0
2018-May-15 17:30N 49°28' E 000°09'0 0.0
2018-May-15 17:00N 49°28' E 000°09'0 0.0
2018-May-15 16:30N 49°28' E 000°09'0 0.0
2018-May-15 16:00N 49°28' E 000°09'0 0.0
2018-May-15 15:30N 49°28' E 000°09'0 0.0
2018-May-15 15:00N 49°28' E 000°09'0 0.0
2018-May-15 14:30N 49°28' E 000°09'0 0.0
2018-May-15 14:00N 49°28' E 000°09'0 0.0
2018-May-15 13:30N 49°28' E 000°09'0 0.0
2018-May-15 13:00N 49°28' E 000°09'0 0.0
2018-May-15 12:30N 49°28' E 000°09'0 0.0
2018-May-15 12:00N 49°28' E 000°09'0 0.0
2018-May-15 11:30N 49°28' E 000°09'0 0.0
2018-May-15 11:00N 49°28' E 000°09'0 0.8
2018-May-15 10:30N 49°28' E 000°09'4 8.6
2018-May-15 10:00N 49°30' E 000°03'815.4
2018-May-15 09:30N 49°32' W 000°09'611.8
2018-May-15 09:00N 49°38' W 000°11'918.0
2018-May-15 08:30N 49°46' W 000°10'917.0
2018-May-15 08:00N 49°55' W 000°10'816.5
2018-May-15 07:30N 50°03' W 000°09'815.6
2018-May-15 07:01N 50°11' W 000°08'815.2
2018-May-15 06:30N 50°19' W 000°07'714.9
2018-May-15 06:00N 50°26' W 000°05'714.2
2018-May-15 05:30N 50°29' E 000°05'714.7
2018-May-15 05:00N 50°31' E 000°16'714.2
2018-May-15 04:30N 50°33' E 000°27'917.7
2018-May-15 04:00N 50°36' E 000°40'918.4
2018-May-15 03:30N 50°42' E 000°51'918.0
2018-May-15 03:00N 50°48' E 001°02'917.1
2018-May-15 02:30N 50°53' E 001°13'816.5
2018-May-15 02:00N 50°58' E 001°23'815.9
2018-May-15 01:30N 51°04' E 001°31'714.6
2018-May-15 01:00N 51°09' E 001°40'714.5
2018-May-15 00:30N 51°15' E 001°47'715.0
2018-May-15 00:00N 51°21' E 001°52'815.7
2018-May-14 23:30N 51°29' E 001°57'714.9
2018-May-14 23:00N 51°34' E 002°05'815.9
2018-May-14 22:30N 51°40' E 002°14'815.7
2018-May-14 22:00N 51°46' E 002°23'815.5
2018-May-14 21:30N 51°51' E 002°31'815.9
2018-May-14 21:00N 51°57' E 002°40'816.0
2018-May-14 20:29N 52°04' E 002°49'816.1
2018-May-14 20:00N 52°09' E 002°57'816.1
2018-May-14 19:30N 52°15' E 003°06'815.9
2018-May-14 19:00N 52°22' E 003°14'816.7
2018-May-14 18:30N 52°29' E 003°21'817.0
2018-May-14 18:00N 52°36' E 003°28'816.5
2018-May-14 17:31N 52°42' E 003°37'816.1
2018-May-14 17:00N 52°49' E 003°45'815.6
2018-May-14 16:30N 52°55' E 003°53'815.3
2018-May-14 16:00N 52°60' E 004°03'815.1
2018-May-14 15:31N 53°05' E 004°12'815.0
2018-May-14 15:00N 53°09' E 004°22'714.8
2018-May-14 14:31N 53°16' E 004°28'714.7
2018-May-14 14:01N 53°23' E 004°33'714.2
2018-May-14 13:31N 53°29' E 004°39'815.6
2018-May-14 13:01N 53°32' E 004°51'815.8
2018-May-14 12:31N 53°35' E 005°03'816.2
2018-May-14 12:01N 53°38' E 005°16'917.7
2018-May-14 11:31N 53°40' E 005°30'918.3
2018-May-14 11:00N 53°43' E 005°45'917.9
2018-May-14 10:31N 53°46' E 005°59'917.3
2018-May-14 10:00N 53°48' E 006°13'817.0
2018-May-14 09:31N 53°51' E 006°27'816.6
2018-May-14 09:01N 53°53' E 006°41'816.7
2018-May-14 08:30N 53°55' E 006°55'816.4
2018-May-14 08:00N 53°56' E 007°08'816.3
2018-May-14 07:31N 53°58' E 007°22'916.8
2018-May-14 06:59N 53°59' E 007°37'715.0
2018-May-14 06:30N 53°54' E 007°45'612.6
2018-May-14 06:00N 53°52' E 007°55'714.3
2018-May-14 05:30N 53°49' E 008°06'816.3
2018-May-14 05:01N 53°44' E 008°16'816.9
2018-May-14 04:30N 53°38' E 008°27'4 9.0
2018-May-14 04:00N 53°35' E 008°32'0 0.1
2018-May-14 03:30N 53°35' E 008°32'0 0.0
2018-May-14 03:00N 53°35' E 008°32'0 0.0
2018-May-14 02:30N 53°35' E 008°32'0 0.0
2018-May-14 02:00N 53°35' E 008°32'0 0.0
2018-May-14 01:30N 53°35' E 008°32'0 0.0
2018-May-14 00:58N 53°35' E 008°32'0 0.0
2018-May-14 00:28N 53°35' E 008°32'0 0.0
2018-May-13 23:55N 53°35' E 008°32'0 0.0
2018-May-13 23:28N 53°35' E 008°32'0 0.0
2018-May-13 22:58N 53°35' E 008°32'0 0.0
2018-May-13 22:28N 53°35' E 008°32'0 0.0
2018-May-13 21:58N 53°35' E 008°32'0 0.0
2018-May-13 21:28N 53°35' E 008°32'0 0.0
2018-May-13 20:58N 53°35' E 008°32'0 0.0
2018-May-13 20:28N 53°35' E 008°32'0 0.0
2018-May-13 19:58N 53°35' E 008°32'0 0.0
2018-May-13 19:28N 53°35' E 008°32'0 0.0
2018-May-13 18:58N 53°35' E 008°32'0 0.0
2018-May-13 18:28N 53°35' E 008°32'0 0.0
2018-May-13 17:58N 53°35' E 008°32'0 0.0
2018-May-13 17:28N 53°35' E 008°32'0 0.0
2018-May-13 16:58N 53°35' E 008°32'0 0.0
2018-May-13 16:28N 53°35' E 008°32'0 0.0
2018-May-13 15:58N 53°35' E 008°32'0 0.0
2018-May-13 15:28N 53°35' E 008°32'0 0.0
2018-May-13 14:58N 53°35' E 008°32'0 0.0
2018-May-13 14:28N 53°35' E 008°32'0 0.0
2018-May-13 13:58N 53°35' E 008°32'0 0.0
2018-May-13 13:28N 53°35' E 008°32'0 0.0
2018-May-13 12:58N 53°35' E 008°32'0 0.0
2018-May-13 12:28N 53°35' E 008°32'0 0.0
2018-May-13 11:58N 53°35' E 008°32'0 0.0
2018-May-13 11:28N 53°35' E 008°32'0 0.0
2018-May-13 10:58N 53°35' E 008°32'0 0.0
2018-May-13 10:28N 53°35' E 008°32'0 0.0
2018-May-13 09:58N 53°35' E 008°32'0 0.0
2018-May-13 09:28N 53°35' E 008°32'0 0.0
2018-May-13 08:58N 53°35' E 008°32'0 0.0
2018-May-13 08:28N 53°35' E 008°32'0 0.0
2018-May-13 07:58N 53°35' E 008°32'0 0.1
2018-May-13 07:28N 53°35' E 008°32'0 0.0
2018-May-13 07:00N 53°35' E 008°32'0 0.1
2018-May-13 06:30N 53°35' E 008°32'0 0.0
2018-May-13 06:00N 53°35' E 008°32'0 0.0
2018-May-13 05:30N 53°35' E 008°32'0 0.0
2018-May-13 05:00N 53°35' E 008°32'0 0.0
2018-May-13 04:30N 53°35' E 008°32'0 0.0
2018-May-13 04:00N 53°35' E 008°32'0 0.0
2018-May-13 03:30N 53°35' E 008°32'0 0.0
2018-May-13 03:00N 53°35' E 008°32'0 0.0
2018-May-13 02:30N 53°35' E 008°32'0 0.0
2018-May-13 02:00N 53°35' E 008°32'0 0.0
2018-May-13 01:28N 53°35' E 008°32'0 0.0
2018-May-13 00:58N 53°35' E 008°32'0 0.0
2018-May-13 00:28N 53°35' E 008°32'0 0.0
2018-May-12 23:58N 53°35' E 008°32'0 0.0
2018-May-12 23:28N 53°35' E 008°32'0 0.0
2018-May-12 22:58N 53°35' E 008°32'0 0.0
2018-May-12 22:28N 53°35' E 008°32'0 0.0
2018-May-12 21:58N 53°35' E 008°32'0 0.0
2018-May-12 21:28N 53°35' E 008°32'0 0.0
2018-May-12 20:58N 53°35' E 008°32'0 0.0
2018-May-12 20:28N 53°35' E 008°32'0 0.0
2018-May-12 19:58N 53°35' E 008°32'0 0.0
2018-May-12 19:28N 53°35' E 008°32'0 0.0
2018-May-12 18:58N 53°35' E 008°32'0 0.0
2018-May-12 18:28N 53°35' E 008°32'0 0.0
2018-May-12 17:58N 53°35' E 008°32'0 0.0
2018-May-12 17:28N 53°35' E 008°32'0 0.0
2018-May-12 16:58N 53°35' E 008°32'0 0.0
2018-May-12 16:28N 53°35' E 008°32'0 0.0
2018-May-12 15:58N 53°35' E 008°32'0 0.0
2018-May-12 15:28N 53°35' E 008°32'0 0.0
2018-May-12 14:58N 53°35' E 008°32'0 0.0
2018-May-12 14:28N 53°35' E 008°32'0 0.0
2018-May-12 13:58N 53°35' E 008°32'0 0.0
2018-May-12 13:28N 53°35' E 008°32'0 0.0
2018-May-12 12:58N 53°35' E 008°32'0 0.0
2018-May-12 12:28N 53°35' E 008°32'0 0.0
2018-May-12 11:58N 53°35' E 008°32'0 0.0
2018-May-12 11:29N 53°35' E 008°32'0 0.0
2018-May-12 10:59N 53°35' E 008°32'0 0.0
2018-May-12 10:29N 53°35' E 008°32'0 0.0
2018-May-12 09:59N 53°35' E 008°32'0 0.0
2018-May-12 09:29N 53°35' E 008°32'0 0.0
2018-May-12 08:59N 53°35' E 008°32'0 0.0
2018-May-12 08:29N 53°35' E 008°32'0 0.0
2018-May-12 07:59N 53°35' E 008°32'0 0.0
2018-May-12 07:29N 53°35' E 008°32'0 0.2
2018-May-12 07:00N 53°35' E 008°32'3 5.4
2018-May-12 06:30N 53°37' E 008°29'613.0
2018-May-12 06:00N 53°41' E 008°21'816.7
2018-May-12 05:31N 53°46' E 008°10'815.9
2018-May-12 05:00N 53°51' E 007°59'612.1
2018-May-12 04:30N 53°54' E 007°50'1 2.1
2018-May-12 03:56N 53°55' E 007°48'0 0.1
2018-May-12 03:20N 53°55' E 007°48'0 0.1
2018-May-12 02:59N 53°55' E 007°48'0 0.0
2018-May-12 02:29N 53°55' E 007°48'0 0.0
2018-May-12 01:11N 53°55' E 007°48'0 0.0
2018-May-12 00:59N 53°55' E 007°48'0 0.0
2018-May-11 20:17N 53°55' E 007°49'0 0.2
2018-May-11 19:59N 53°55' E 007°49'0 0.1
2018-May-11 17:26N 53°55' E 007°49'0 0.1
2018-May-11 13:41N 53°55' E 007°48'0 0.0
2018-May-11 12:02N 53°55' E 007°48'0 0.0
2018-May-11 11:56N 53°55' E 007°48'0 0.0
2018-May-11 11:29N 53°55' E 007°48'0 0.0
2018-May-11 10:47N 53°55' E 007°48'0 0.2
2018-May-11 10:29N 53°55' E 007°48'0 0.2
2018-May-11 09:56N 53°55' E 007°49'0 0.1
2018-May-11 09:30N 53°55' E 007°49'0 0.0
2018-May-11 08:58N 53°55' E 007°49'2 4.4
2018-May-11 08:29N 53°57' E 007°47'3 5.5
2018-May-11 08:00N 53°56' E 007°42'6413.0
2018-May-11 03:06N 53°41' E 005°58'313.0
2018-May-11 02:51N 53°40' E 005°52'1213.0
2018-May-11 01:56N 53°36' E 005°33'613.1
2018-May-11 01:31N 53°35' E 005°24'713.1
2018-May-11 01:00N 53°32' E 005°14'612.9
2018-May-11 00:31N 53°30' E 005°04'612.6
2018-May-11 00:01N 53°27' E 004°54'612.3
2018-May-10 23:31N 53°24' E 004°45'612.4
2018-May-10 23:01N 53°19' E 004°39'612.4
2018-May-10 22:31N 53°14' E 004°35'612.1
2018-May-10 22:00N 53°08' E 004°30'612.0
2018-May-10 21:30N 53°03' E 004°25'611.8
2018-May-10 21:00N 52°58' E 004°20'611.7
2018-May-10 20:30N 52°53' E 004°16'611.4
2018-May-10 20:01N 52°48' E 004°11'611.5
2018-May-10 19:30N 52°43' E 004°06'611.3
2018-May-10 18:59N 52°39' E 003°58'611.5
2018-May-10 18:30N 52°35' E 003°52'511.1
2018-May-10 18:00N 52°31' E 003°46'611.2
2018-May-10 17:30N 52°27' E 003°39'511.1
2018-May-10 17:00N 52°23' E 003°33'611.1
2018-May-10 16:30N 52°19' E 003°27'511.0
2018-May-10 16:00N 52°15' E 003°20'611.0
2018-May-10 15:30N 52°11' E 003°14'511.1
2018-May-10 15:00N 52°07' E 003°08'711.3
2018-May-10 14:24N 52°02' E 003°01'611.4
2018-May-10 13:50N 51°57' E 002°53'1311.8
2018-May-10 12:46N 51°48' E 002°40'411.8
2018-May-10 12:24N 51°44' E 002°39'511.6
2018-May-10 11:58N 51°39' E 002°43'611.7
2018-May-10 11:25N 51°33' E 002°43'511.9
2018-May-10 11:00N 51°28' E 002°40'5 9.8
2018-May-10 10:27N 51°23' E 002°44'4 9.5
2018-May-10 10:00N 51°22' E 002°50'815.5
2018-May-10 09:29N 51°25' E 003°03'715.4
2018-May-10 09:00N 51°25' E 003°15'815.4
2018-May-10 08:30N 51°25' E 003°27'612.5
2018-May-10 08:00N 51°26' E 003°37'4 7.4
2018-May-10 07:30N 51°25' E 003°43'612.0
2018-May-10 07:00N 51°21' E 003°50'611.1
2018-May-10 06:31N 51°24' E 003°57'3 6.6
2018-May-10 06:00N 51°25' E 004°02'5 9.3
2018-May-10 05:31N 51°22' E 004°07'4 8.7
2018-May-10 05:00N 51°21' E 004°14'1 1.9
2018-May-10 04:31N 51°21' E 004°16'0 0.0
2018-May-10 04:00N 51°21' E 004°16'0 0.0
2018-May-10 03:31N 51°21' E 004°16'0 0.0
2018-May-10 02:59N 51°21' E 004°16'0 0.0
2018-May-10 02:31N 51°21' E 004°16'0 0.0
2018-May-10 02:00N 51°21' E 004°16'0 0.0
2018-May-10 01:31N 51°21' E 004°16'0 0.0
2018-May-10 00:59N 51°21' E 004°16'0 0.0
2018-May-10 00:31N 51°21' E 004°16'0 0.0
2018-May-10 00:00N 51°21' E 004°16'0 0.0
2018-May-09 23:31N 51°21' E 004°16'0 0.0
2018-May-09 23:01N 51°21' E 004°16'0 0.0
2018-May-09 22:30N 51°21' E 004°16'0 0.0
2018-May-09 21:59N 51°21' E 004°16'0 0.0
2018-May-09 21:31N 51°21' E 004°16'0 0.0
2018-May-09 20:59N 51°21' E 004°16'0 0.0
2018-May-09 20:31N 51°21' E 004°16'0 0.0
2018-May-09 20:01N 51°21' E 004°16'0 0.0
2018-May-09 19:30N 51°21' E 004°16'0 0.0
2018-May-09 19:01N 51°21' E 004°16'0 0.0
2018-May-09 18:30N 51°21' E 004°16'0 0.0
2018-May-09 17:59N 51°21' E 004°16'0 0.0
2018-May-09 17:29N 51°21' E 004°16'0 0.0
2018-May-09 17:00N 51°21' E 004°16'0 0.0
2018-May-09 16:30N 51°21' E 004°16'0 0.0
2018-May-09 16:01N 51°21' E 004°16'0 0.0
2018-May-09 15:31N 51°21' E 004°16'0 0.0
2018-May-09 15:00N 51°21' E 004°16'0 0.0
2018-May-09 14:31N 51°21' E 004°16'0 0.1
2018-May-09 14:00N 51°21' E 004°16'0 0.0
2018-May-09 13:31N 51°21' E 004°16'0 0.1
2018-May-09 13:00N 51°21' E 004°16'0 0.0
2018-May-09 12:31N 51°21' E 004°16'0 0.0
2018-May-09 12:01N 51°21' E 004°16'0 0.0
2018-May-09 11:26N 51°21' E 004°16'0 0.0
2018-May-09 10:59N 51°21' E 004°16'0 0.0
2018-May-09 10:30N 51°21' E 004°16'0 0.0
2018-May-09 09:58N 51°21' E 004°16'0 0.1
2018-May-09 09:30N 51°21' E 004°16'0 0.1
2018-May-09 08:59N 51°21' E 004°16'0 0.1
2018-May-09 08:30N 51°21' E 004°16'0 0.0
2018-May-09 08:01N 51°21' E 004°16'0 0.0
2018-May-09 07:31N 51°21' E 004°16'0 0.0
2018-May-09 07:00N 51°21' E 004°16'0 0.0
2018-May-09 06:30N 51°21' E 004°16'0 0.0
2018-May-09 06:01N 51°21' E 004°16'0 0.0
2018-May-09 05:31N 51°21' E 004°16'0 0.1
2018-May-09 04:58N 51°21' E 004°16'0 0.0
2018-May-09 04:30N 51°21' E 004°16'0 0.0
2018-May-09 04:00N 51°21' E 004°16'0 0.0
2018-May-09 03:31N 51°21' E 004°16'0 0.0
2018-May-09 03:01N 51°21' E 004°16'  
Track history (hours):
 
Tides and Currents Weather Stations Pressure Air Temp Water Temp Dewpoint Dewpoint Depression Visibility Wind Speed Wind Dir Waves Ship Positions

Sealand Washington

Last reported at 2018-May-19 02:32 UTC. Time now 2018-May-22 21:22 UTC.
Position N 48°24' W 010°09'.

Length 304 m; draft 13.7 m.

Type: Ship. MMSI: 229577000.

Date/timePositionNaut miles runAvg speedWind from/ knotsBaromVisibWave heightAir tempDewpointWater temp
2018-May-19 02:32N 48°24' W 010°09'117.5
2018-May-19 02:29N 48°24' W 010°08'917.7
2018-May-19 02:01N 48°26' W 009°55'918.1
2018-May-19 01:31N 48°29' W 009°42'918.3
2018-May-19 01:00N 48°31' W 009°29'918.5
2018-May-19 00:30N 48°34' W 009°15'918.4
2018-May-19 00:00N 48°39' W 009°04'917.7
2018-May-18 23:30N 48°44' W 008°53'1018.3
2018-May-18 22:59N 48°47' W 008°39'1018.2
2018-May-18 22:24N 48°49' W 008°23'718.2
2018-May-18 22:00N 48°51' W 008°13'918.1
2018-May-18 21:30N 48°54' W 007°60'3517.4
2018-May-18 19:29N 49°07' W 007°10'1116.7
2018-May-18 18:49N 49°10' W 006°54'516.5
2018-May-18 18:31N 49°12' W 006°46'1016.5
2018-May-18 17:55N 49°15' W 006°32'916.5
2018-May-18 17:21N 49°18' W 006°19'616.5
2018-May-18 17:00N 49°20' W 006°10'816.8
2018-May-18 16:31N 49°22' W 005°58'917.0
2018-May-18 16:01N 49°25' W 005°46'917.4
2018-May-18 15:31N 49°28' W 005°33'917.8
2018-May-18 15:01N 49°31' W 005°20'4918.8
2018-May-18 12:26N 49°45' W 004°09'919.8
2018-May-18 11:58N 49°48' W 003°55'1119.4
2018-May-18 11:25N 49°51' W 003°39'818.6
2018-May-18 11:00N 49°53' W 003°28'918.0
2018-May-18 10:30N 49°56' W 003°14'917.9
2018-May-18 10:00N 49°59' W 003°01'916.9
2018-May-18 09:30N 50°01' W 002°48'816.8
2018-May-18 09:00N 50°03' W 002°36'1416.2
2018-May-18 08:07N 50°06' W 002°14'215.6
2018-May-18 07:58N 50°07' W 002°10'715.9
2018-May-18 07:30N 50°08' W 001°59'816.4
2018-May-18 07:00N 50°05' W 001°47'816.9
2018-May-18 06:30N 50°00' W 001°36'917.5
2018-May-18 06:00N 49°56' W 001°24'918.3
2018-May-18 05:30N 49°52' W 001°12'918.9
2018-May-18 05:00N 49°47' W 000°59'918.9
2018-May-18 04:30N 49°43' W 000°46'918.5
2018-May-18 04:01N 49°39' W 000°33'918.3
2018-May-18 03:30N 49°35' W 000°20'815.9
2018-May-18 03:00N 49°32' W 000°09'612.3
2018-May-18 02:31N 49°30' E 000°00'611.3
2018-May-18 02:00N 49°28' E 000°08'1 1.6
2018-May-18 01:30N 49°28' E 000°09'0 0.0
2018-May-18 01:00N 49°28' E 000°09'0 0.0
2018-May-18 00:30N 49°28' E 000°09'0 0.0
2018-May-18 00:00N 49°28' E 000°09'0 0.0
2018-May-17 23:30N 49°28' E 000°09'0 0.0
2018-May-17 23:00N 49°28' E 000°09'0 0.0
2018-May-17 22:30N 49°28' E 000°09'0 0.0
2018-May-17 22:00N 49°28' E 000°09'0 0.0
2018-May-17 21:30N 49°28' E 000°09'0 0.0
2018-May-17 21:00N 49°28' E 000°09'0 0.0
2018-May-17 20:30N 49°28' E 000°09'0 0.0
2018-May-17 20:00N 49°28' E 000°09'0 0.0
2018-May-17 19:30N 49°28' E 000°09'0 0.0
2018-May-17 19:00N 49°28' E 000°09'0 0.0
2018-May-17 18:30N 49°28' E 000°09'0 0.0
2018-May-17 18:00N 49°28' E 000°09'0 0.0
2018-May-17 17:30N 49°28' E 000°09'0 0.0
2018-May-17 17:00N 49°28' E 000°09'0 0.0
2018-May-17 16:30N 49°28' E 000°09'0 0.0
2018-May-17 16:00N 49°28' E 000°09'0 0.0
2018-May-17 15:30N 49°28' E 000°09'0 0.0
2018-May-17 15:00N 49°28' E 000°09'0 0.0
2018-May-17 14:30N 49°28' E 000°09'0 0.0
2018-May-17 14:00N 49°28' E 000°09'0 0.0
2018-May-17 13:30N 49°28' E 000°09'0 0.0
2018-May-17 13:00N 49°28' E 000°09'0 0.0
2018-May-17 12:30N 49°28' E 000°09'0 0.0
2018-May-17 12:00N 49°28' E 000°09'0 0.0
2018-May-17 11:30N 49°28' E 000°09'0 0.0
2018-May-17 11:00N 49°28' E 000°09'0 0.0
2018-May-17 10:30N 49°28' E 000°09'0 0.0
2018-May-17 10:00N 49°28' E 000°09'0 0.0
2018-May-17 09:30N 49°28' E 000°09'0 0.0
2018-May-17 09:00N 49°28' E 000°09'0 0.0
2018-May-17 08:30N 49°28' E 000°09'0 0.0
2018-May-17 08:00N 49°28' E 000°09'0 0.0
2018-May-17 07:30N 49°28' E 000°09'0 0.0
2018-May-17 07:00N 49°28' E 000°09'0 0.0
2018-May-17 06:30N 49°28' E 000°09'0 0.0
2018-May-17 06:00N 49°28' E 000°09'0 0.0
2018-May-17 05:30N 49°28' E 000°09'0 0.0
2018-May-17 05:00N 49°28' E 000°09'0 0.0
2018-May-17 04:30N 49°28' E 000°09'0 0.0
2018-May-17 04:00N 49°28' E 000°09'0 0.0
2018-May-17 03:30N 49°28' E 000°09'0 0.0
2018-May-17 03:00N 49°28' E 000°09'0 0.0
2018-May-17 02:30N 49°28' E 000°09'0 0.0
2018-May-17 02:00N 49°28' E 000°09'0 0.0
2018-May-17 01:30N 49°28' E 000°09'0 0.0
2018-May-17 01:00N 49°28' E 000°09'0 0.0
2018-May-17 00:30N 49°28' E 000°09'0 0.0
2018-May-17 00:00N 49°28' E 000°09'0 0.0
2018-May-16 23:30N 49°28' E 000°09'0 0.0
2018-May-16 23:00N 49°28' E 000°09'0 0.0
2018-May-16 22:30N 49°28' E 000°09'0 0.0
2018-May-16 22:00N 49°28' E 000°09'0 0.0
2018-May-16 21:30N 49°28' E 000°09'0 0.0
2018-May-16 21:00N 49°28' E 000°09'0 0.0
2018-May-16 20:30N 49°28' E 000°09'0 0.0
2018-May-16 20:00N 49°28' E 000°09'0 0.0
2018-May-16 19:30N 49°28' E 000°09'0 0.0
2018-May-16 19:00N 49°28' E 000°09'0 0.0
2018-May-16 18:30N 49°28' E 000°09'0 0.0
2018-May-16 18:00N 49°28' E 000°09'0 0.0
2018-May-16 17:30N 49°28' E 000°09'0 0.0
2018-May-16 17:00N 49°28' E 000°09'0 0.0
2018-May-16 16:30N 49°28' E 000°09'0 0.0
2018-May-16 16:00N 49°28' E 000°09'0 0.0
2018-May-16 15:30N 49°28' E 000°09'0 0.0
2018-May-16 15:00N 49°28' E 000°09'0 0.0
2018-May-16 14:30N 49°28' E 000°09'0 0.0
2018-May-16 14:00N 49°28' E 000°09'0 0.0
2018-May-16 13:30N 49°28' E 000°09'0 0.0
2018-May-16 13:00N 49°28' E 000°09'0 0.0
2018-May-16 12:30N 49°28' E 000°09'0 0.0
2018-May-16 12:00N 49°28' E 000°09'0 0.0
2018-May-16 11:30N 49°28' E 000°09'0 0.0
2018-May-16 11:00N 49°28' E 000°09'0 0.0
2018-May-16 10:30N 49°28' E 000°09'0 0.0
2018-May-16 10:00N 49°28' E 000°09'0 0.0
2018-May-16 09:30N 49°28' E 000°09'0 0.0
2018-May-16 09:00N 49°28' E 000°09'0 0.0
2018-May-16 08:30N 49°28' E 000°09'0 0.0
2018-May-16 08:00N 49°28' E 000°09'0 0.0
2018-May-16 07:30N 49°28' E 000°09'0 0.0
2018-May-16 07:00N 49°28' E 000°09'0 0.0
2018-May-16 06:30N 49°28' E 000°09'0 0.0
2018-May-16 06:00N 49°28' E 000°09'0 0.0
2018-May-16 05:30N 49°28' E 000°09'0 0.0
2018-May-16 05:00N 49°28' E 000°09'0 0.0
2018-May-16 04:30N 49°28' E 000°09'0 0.0
2018-May-16 04:00N 49°28' E 000°09'0 0.0
2018-May-16 03:30N 49°28' E 000°09'0 0.0
2018-May-16 03:00N 49°28' E 000°09'0 0.0
2018-May-16 02:30N 49°28' E 000°09'0 0.0
2018-May-16 02:00N 49°28' E 000°09'0 0.0
2018-May-16 01:30N 49°28' E 000°09'0 0.0
2018-May-16 01:00N 49°28' E 000°09'0 0.0
2018-May-16 00:30N 49°28' E 000°09'0 0.0
2018-May-16 00:00N 49°28' E 000°09'0 0.0
2018-May-15 23:30N 49°28' E 000°09'0 0.0
2018-May-15 23:00N 49°28' E 000°09'0 0.0
2018-May-15 22:30N 49°28' E 000°09'0 0.0
2018-May-15 22:00N 49°28' E 000°09'0 0.0
2018-May-15 21:30N 49°28' E 000°09'0 0.0
2018-May-15 21:00N 49°28' E 000°09'0 0.0
2018-May-15 20:30N 49°28' E 000°09'0 0.0
2018-May-15 20:00N 49°28' E 000°09'0 0.0
2018-May-15 19:30N 49°28' E 000°09'0 0.0
2018-May-15 19:00N 49°28' E 000°09'0 0.1
2018-May-15 18:30N 49°28' E 000°09'0 0.0
2018-May-15 18:00N 49°28' E 000°09'0 0.0
2018-May-15 17:30N 49°28' E 000°09'0 0.0
2018-May-15 17:00N 49°28' E 000°09'0 0.0
2018-May-15 16:30N 49°28' E 000°09'0 0.0
2018-May-15 16:00N 49°28' E 000°09'0 0.0
2018-May-15 15:30N 49°28' E 000°09'0 0.0
2018-May-15 15:00N 49°28' E 000°09'0 0.0
2018-May-15 14:30N 49°28' E 000°09'0 0.0
2018-May-15 14:00N 49°28' E 000°09'0 0.0
2018-May-15 13:30N 49°28' E 000°09'0 0.0
2018-May-15 13:00N 49°28' E 000°09'0 0.0
2018-May-15 12:30N 49°28' E 000°09'0 0.0
2018-May-15 12:00N 49°28' E 000°09'0 0.0
2018-May-15 11:30N 49°28' E 000°09'0 0.0
2018-May-15 11:00N 49°28' E 000°09'0 0.8
2018-May-15 10:30N 49°28' E 000°09'4 8.6
2018-May-15 10:00N 49°30' E 000°03'815.4
2018-May-15 09:30N 49°32' W 000°09'611.8
2018-May-15 09:00N 49°38' W 000°11'918.0
2018-May-15 08:30N 49°46' W 000°10'917.0
2018-May-15 08:00N 49°55' W 000°10'816.5
2018-May-15 07:30N 50°03' W 000°09'815.6
2018-May-15 07:01N 50°11' W 000°08'815.2
2018-May-15 06:30N 50°19' W 000°07'714.9
2018-May-15 06:00N 50°26' W 000°05'714.2
2018-May-15 05:30N 50°29' E 000°05'714.7
2018-May-15 05:00N 50°31' E 000°16'714.2
2018-May-15 04:30N 50°33' E 000°27'917.7
2018-May-15 04:00N 50°36' E 000°40'918.4
2018-May-15 03:30N 50°42' E 000°51'918.0
2018-May-15 03:00N 50°48' E 001°02'917.1
2018-May-15 02:30N 50°53' E 001°13'816.5
2018-May-15 02:00N 50°58' E 001°23'815.9
2018-May-15 01:30N 51°04' E 001°31'714.6
2018-May-15 01:00N 51°09' E 001°40'714.5
2018-May-15 00:30N 51°15' E 001°47'715.0
2018-May-15 00:00N 51°21' E 001°52'815.7
2018-May-14 23:30N 51°29' E 001°57'714.9
2018-May-14 23:00N 51°34' E 002°05'815.9
2018-May-14 22:30N 51°40' E 002°14'815.7
2018-May-14 22:00N 51°46' E 002°23'815.5
2018-May-14 21:30N 51°51' E 002°31'815.9
2018-May-14 21:00N 51°57' E 002°40'816.0
2018-May-14 20:29N 52°04' E 002°49'816.1
2018-May-14 20:00N 52°09' E 002°57'816.1
2018-May-14 19:30N 52°15' E 003°06'815.9
2018-May-14 19:00N 52°22' E 003°14'816.7
2018-May-14 18:30N 52°29' E 003°21'817.0
2018-May-14 18:00N 52°36' E 003°28'816.5
2018-May-14 17:31N 52°42' E 003°37'816.1
2018-May-14 17:00N 52°49' E 003°45'815.6
2018-May-14 16:30N 52°55' E 003°53'815.3
2018-May-14 16:00N 52°60' E 004°03'815.1
2018-May-14 15:31N 53°05' E 004°12'815.0
2018-May-14 15:00N 53°09' E 004°22'714.8
2018-May-14 14:31N 53°16' E 004°28'714.7
2018-May-14 14:01N 53°23' E 004°33'714.2
2018-May-14 13:31N 53°29' E 004°39'815.6
2018-May-14 13:01N 53°32' E 004°51'815.8
2018-May-14 12:31N 53°35' E 005°03'816.2
2018-May-14 12:01N 53°38' E 005°16'917.7
2018-May-14 11:31N 53°40' E 005°30'918.3
2018-May-14 11:00N 53°43' E 005°45'917.9
2018-May-14 10:31N 53°46' E 005°59'917.3
2018-May-14 10:00N 53°48' E 006°13'817.0
2018-May-14 09:31N 53°51' E 006°27'816.6
2018-May-14 09:01N 53°53' E 006°41'816.7
2018-May-14 08:30N 53°55' E 006°55'816.4
2018-May-14 08:00N 53°56' E 007°08'816.3
2018-May-14 07:31N 53°58' E 007°22'916.8
2018-May-14 06:59N 53°59' E 007°37'715.0
2018-May-14 06:30N 53°54' E 007°45'612.6
2018-May-14 06:00N 53°52' E 007°55'714.3
2018-May-14 05:30N 53°49' E 008°06'816.3
2018-May-14 05:01N 53°44' E 008°16'816.9
2018-May-14 04:30N 53°38' E 008°27'4 9.0
2018-May-14 04:00N 53°35' E 008°32'0 0.1
2018-May-14 03:30N 53°35' E 008°32'0 0.0
2018-May-14 03:00N 53°35' E 008°32'0 0.0
2018-May-14 02:30N 53°35' E 008°32'0 0.0
2018-May-14 02:00N 53°35' E 008°32'0 0.0
2018-May-14 01:30N 53°35' E 008°32'0 0.0
2018-May-14 00:58N 53°35' E 008°32'0 0.0
2018-May-14 00:28N 53°35' E 008°32'0 0.0
2018-May-13 23:55N 53°35' E 008°32'0 0.0
2018-May-13 23:28N 53°35' E 008°32'0 0.0
2018-May-13 22:58N 53°35' E 008°32'0 0.0
2018-May-13 22:28N 53°35' E 008°32'0 0.0
2018-May-13 21:58N 53°35' E 008°32'0 0.0
2018-May-13 21:28N 53°35' E 008°32'0 0.0
2018-May-13 20:58N 53°35' E 008°32'0 0.0
2018-May-13 20:28N 53°35' E 008°32'0 0.0
2018-May-13 19:58N 53°35' E 008°32'0 0.0
2018-May-13 19:28N 53°35' E 008°32'0 0.0
2018-May-13 18:58N 53°35' E 008°32'0 0.0
2018-May-13 18:28N 53°35' E 008°32'0 0.0
2018-May-13 17:58N 53°35' E 008°32'0 0.0
2018-May-13 17:28N 53°35' E 008°32'0 0.0
2018-May-13 16:58N 53°35' E 008°32'0 0.0
2018-May-13 16:28N 53°35' E 008°32'0 0.0
2018-May-13 15:58N 53°35' E 008°32'0 0.0
2018-May-13 15:28N 53°35' E 008°32'0 0.0
2018-May-13 14:58N 53°35' E 008°32'0 0.0
2018-May-13 14:28N 53°35' E 008°32'0 0.0
2018-May-13 13:58N 53°35' E 008°32'0 0.0
2018-May-13 13:28N 53°35' E 008°32'0 0.0
2018-May-13 12:58N 53°35' E 008°32'0 0.0
2018-May-13 12:28N 53°35' E 008°32'0 0.0
2018-May-13 11:58N 53°35' E 008°32'0 0.0
2018-May-13 11:28N 53°35' E 008°32'0 0.0
2018-May-13 10:58N 53°35' E 008°32'0 0.0
2018-May-13 10:28N 53°35' E 008°32'0 0.0
2018-May-13 09:58N 53°35' E 008°32'0 0.0
2018-May-13 09:28N 53°35' E 008°32'0 0.0
2018-May-13 08:58N 53°35' E 008°32'0 0.0
2018-May-13 08:28N 53°35' E 008°32'0 0.0
2018-May-13 07:58N 53°35' E 008°32'0 0.1
2018-May-13 07:28N 53°35' E 008°32'0 0.0
2018-May-13 07:00N 53°35' E 008°32'0 0.1
2018-May-13 06:30N 53°35' E 008°32'0 0.0
2018-May-13 06:00N 53°35' E 008°32'0 0.0
2018-May-13 05:30N 53°35' E 008°32'0 0.0
2018-May-13 05:00N 53°35' E 008°32'0 0.0
2018-May-13 04:30N 53°35' E 008°32'0 0.0
2018-May-13 04:00N 53°35' E 008°32'0 0.0
2018-May-13 03:30N 53°35' E 008°32'0 0.0
2018-May-13 03:00N 53°35' E 008°32'0 0.0
2018-May-13 02:30N 53°35' E 008°32'0 0.0
2018-May-13 02:00N 53°35' E 008°32'0 0.0
2018-May-13 01:28N 53°35' E 008°32'0 0.0
2018-May-13 00:58N 53°35' E 008°32'0 0.0
2018-May-13 00:28N 53°35' E 008°32'0 0.0
2018-May-12 23:58N 53°35' E 008°32'0 0.0
2018-May-12 23:28N 53°35' E 008°32'0 0.0
2018-May-12 22:58N 53°35' E 008°32'0 0.0
2018-May-12 22:28N 53°35' E 008°32'0 0.0
2018-May-12 21:58N 53°35' E 008°32'0 0.0
2018-May-12 21:28N 53°35' E 008°32'0 0.0
2018-May-12 20:58N 53°35' E 008°32'0 0.0
2018-May-12 20:28N 53°35' E 008°32'0 0.0
2018-May-12 19:58N 53°35' E 008°32'0 0.0
2018-May-12 19:28N 53°35' E 008°32'0 0.0
2018-May-12 18:58N 53°35' E 008°32'0 0.0
2018-May-12 18:28N 53°35' E 008°32'0 0.0
2018-May-12 17:58N 53°35' E 008°32'0 0.0
2018-May-12 17:28N 53°35' E 008°32'0 0.0
2018-May-12 16:58N 53°35' E 008°32'0 0.0
2018-May-12 16:28N 53°35' E 008°32'0 0.0
2018-May-12 15:58N 53°35' E 008°32'0 0.0
2018-May-12 15:28N 53°35' E 008°32'0 0.0
2018-May-12 14:58N 53°35' E 008°32'0 0.0
2018-May-12 14:28N 53°35' E 008°32'0 0.0
2018-May-12 13:58N 53°35' E 008°32'0 0.0
2018-May-12 13:28N 53°35' E 008°32'0 0.0
2018-May-12 12:58N 53°35' E 008°32'0 0.0
2018-May-12 12:28N 53°35' E 008°32'0 0.0
2018-May-12 11:58N 53°35' E 008°32'0 0.0
2018-May-12 11:29N 53°35' E 008°32'0 0.0
2018-May-12 10:59N 53°35' E 008°32'0 0.0
2018-May-12 10:29N 53°35' E 008°32'0 0.0
2018-May-12 09:59N 53°35' E 008°32'0 0.0
2018-May-12 09:29N 53°35' E 008°32'0 0.0
2018-May-12 08:59N 53°35' E 008°32'0 0.0
2018-May-12 08:29N 53°35' E 008°32'0 0.0
2018-May-12 07:59N 53°35' E 008°32'0 0.0
2018-May-12 07:29N 53°35' E 008°32'0 0.2
2018-May-12 07:00N 53°35' E 008°32'3 5.4
2018-May-12 06:30N 53°37' E 008°29'613.0
2018-May-12 06:00N 53°41' E 008°21'816.7
2018-May-12 05:31N 53°46' E 008°10'815.9
2018-May-12 05:00N 53°51' E 007°59'612.1
2018-May-12 04:30N 53°54' E 007°50'1 2.1
2018-May-12 03:56N 53°55' E 007°48'0 0.1
2018-May-12 03:20N 53°55' E 007°48'0 0.1
2018-May-12 02:59N 53°55' E 007°48'0 0.0
2018-May-12 02:29N 53°55' E 007°48'0 0.0
2018-May-12 01:11N 53°55' E 007°48'0 0.0
2018-May-12 00:59N 53°55' E 007°48'0 0.0
2018-May-11 20:17N 53°55' E 007°49'0 0.2
2018-May-11 19:59N 53°55' E 007°49'0 0.1
2018-May-11 17:26N 53°55' E 007°49'0 0.1
2018-May-11 13:41N 53°55' E 007°48'0 0.0
2018-May-11 12:02N 53°55' E 007°48'0 0.0
2018-May-11 11:56N 53°55' E 007°48'0 0.0
2018-May-11 11:29N 53°55' E 007°48'0 0.0
2018-May-11 10:47N 53°55' E 007°48'0 0.2
2018-May-11 10:29N 53°55' E 007°48'0 0.2
2018-May-11 09:56N 53°55' E 007°49'0 0.1
2018-May-11 09:30N 53°55' E 007°49'0 0.0
2018-May-11 08:58N 53°55' E 007°49'2 4.4
2018-May-11 08:29N 53°57' E 007°47'3 5.5
2018-May-11 08:00N 53°56' E 007°42'6413.0
2018-May-11 03:06N 53°41' E 005°58'313.0
2018-May-11 02:51N 53°40' E 005°52'1213.0
2018-May-11 01:56N 53°36' E 005°33'613.1
2018-May-11 01:31N 53°35' E 005°24'713.1
2018-May-11 01:00N 53°32' E 005°14'612.9
2018-May-11 00:31N 53°30' E 005°04'612.6
2018-May-11 00:01N 53°27' E 004°54'612.3
2018-May-10 23:31N 53°24' E 004°45'612.4
2018-May-10 23:01N 53°19' E 004°39'612.4
2018-May-10 22:31N 53°14' E 004°35'612.1
2018-May-10 22:00N 53°08' E 004°30'612.0
2018-May-10 21:30N 53°03' E 004°25'611.8
2018-May-10 21:00N 52°58' E 004°20'611.7
2018-May-10 20:30N 52°53' E 004°16'611.4
2018-May-10 20:01N 52°48' E 004°11'611.5
2018-May-10 19:30N 52°43' E 004°06'611.3
2018-May-10 18:59N 52°39' E 003°58'611.5
2018-May-10 18:30N 52°35' E 003°52'511.1
2018-May-10 18:00N 52°31' E 003°46'611.2
2018-May-10 17:30N 52°27' E 003°39'511.1
2018-May-10 17:00N 52°23' E 003°33'611.1
2018-May-10 16:30N 52°19' E 003°27'511.0
2018-May-10 16:00N 52°15' E 003°20'611.0
2018-May-10 15:30N 52°11' E 003°14'511.1
2018-May-10 15:00N 52°07' E 003°08'711.3
2018-May-10 14:24N 52°02' E 003°01'611.4
2018-May-10 13:50N 51°57' E 002°53'1311.8
2018-May-10 12:46N 51°48' E 002°40'411.8
2018-May-10 12:24N 51°44' E 002°39'511.6
2018-May-10 11:58N 51°39' E 002°43'611.7
2018-May-10 11:25N 51°33' E 002°43'511.9
2018-May-10 11:00N 51°28' E 002°40'5 9.8
2018-May-10 10:27N 51°23' E 002°44'4 9.5
2018-May-10 10:00N 51°22' E 002°50'815.5
2018-May-10 09:29N 51°25' E 003°03'715.4
2018-May-10 09:00N 51°25' E 003°15'815.4
2018-May-10 08:30N 51°25' E 003°27'612.5
2018-May-10 08:00N 51°26' E 003°37'4 7.4
2018-May-10 07:30N 51°25' E 003°43'612.0
2018-May-10 07:00N 51°21' E 003°50'611.1
2018-May-10 06:31N 51°24' E 003°57'3 6.6
2018-May-10 06:00N 51°25' E 004°02'5 9.3
2018-May-10 05:31N 51°22' E 004°07'4 8.7
2018-May-10 05:00N 51°21' E 004°14'1 1.9
2018-May-10 04:31N 51°21' E 004°16'0 0.0
2018-May-10 04:00N 51°21' E 004°16'0 0.0
2018-May-10 03:31N 51°21' E 004°16'0 0.0
2018-May-10 02:59N 51°21' E 004°16'0 0.0
2018-May-10 02:31N 51°21' E 004°16'0 0.0
2018-May-10 02:00N 51°21' E 004°16'0 0.0
2018-May-10 01:31N 51°21' E 004°16'0 0.0
2018-May-10 00:59N 51°21' E 004°16'0 0.0
2018-May-10 00:31N 51°21' E 004°16'0 0.0
2018-May-10 00:00N 51°21' E 004°16'0 0.0
2018-May-09 23:31N 51°21' E 004°16'0 0.0
2018-May-09 23:01N 51°21' E 004°16'0 0.0
2018-May-09 22:30N 51°21' E 004°16'0 0.0
2018-May-09 21:59N 51°21' E 004°16'0 0.0
2018-May-09 21:31N 51°21' E 004°16'0 0.0
2018-May-09 20:59N 51°21' E 004°16'0 0.0
2018-May-09 20:31N 51°21' E 004°16'0 0.0
2018-May-09 20:01N 51°21' E 004°16'0 0.0
2018-May-09 19:30N 51°21' E 004°16'0 0.0
2018-May-09 19:01N 51°21' E 004°16'0 0.0
2018-May-09 18:30N 51°21' E 004°16'0 0.0
2018-May-09 17:59N 51°21' E 004°16'0 0.0
2018-May-09 17:29N 51°21' E 004°16'0 0.0
2018-May-09 17:00N 51°21' E 004°16'0 0.0
2018-May-09 16:30N 51°21' E 004°16'0 0.0
2018-May-09 16:01N 51°21' E 004°16'0 0.0
2018-May-09 15:31N 51°21' E 004°16'0 0.0
2018-May-09 15:00N 51°21' E 004°16'0 0.0
2018-May-09 14:31N 51°21' E 004°16'0 0.1
2018-May-09 14:00N 51°21' E 004°16'0 0.0
2018-May-09 13:31N 51°21' E 004°16'0 0.1
2018-May-09 13:00N 51°21' E 004°16'0 0.0
2018-May-09 12:31N 51°21' E 004°16'0 0.0
2018-May-09 12:01N 51°21' E 004°16'0 0.0
2018-May-09 11:26N 51°21' E 004°16'0 0.0
2018-May-09 10:59N 51°21' E 004°16'0 0.0
2018-May-09 10:30N 51°21' E 004°16'0 0.0
2018-May-09 09:58N 51°21' E 004°16'0 0.1
2018-May-09 09:30N 51°21' E 004°16'0 0.1
2018-May-09 08:59N 51°21' E 004°16'0 0.1
2018-May-09 08:30N 51°21' E 004°16'0 0.0
2018-May-09 08:01N 51°21' E 004°16'0 0.0
2018-May-09 07:31N 51°21' E 004°16'0 0.0
2018-May-09 07:00N 51°21' E 004°16'0 0.0
2018-May-09 06:30N 51°21' E 004°16'0 0.0
2018-May-09 06:01N 51°21' E 004°16'0 0.0
2018-May-09 05:31N 51°21' E 004°16'0 0.1
2018-May-09 04:58N 51°21' E 004°16'0 0.0
2018-May-09 04:30N 51°21' E 004°16'0 0.0
2018-May-09 04:00N 51°21' E 004°16'0 0.0
2018-May-09 03:31N 51°21' E 004°16'0 0.0
2018-May-09 03:01N 51°21' E 004°16'  

Dump ship's entire track history